Time;durP1;ratioP1;P1;durP2;ratioP2;P2;SDS_P1;SDS_P2;PMS_P1;PMS_P2;Temp;Humidity;BMP_temperature;BMP_pressure;BME280_temperature;BME280_humidity;BME280_pressure;Samples;Min_cycle;Max_cycle;Signal;HPM_P1;HPM_P2
2021/07/29 00:00:11;;;;;;;8.23;3.85;;;17.40;99.90;;;17.75;70.14;100699.16;4936177;29;20061;-83
2021/07/29 00:02:39;;;;;;;8.90;3.83;;;17.40;99.90;;;17.76;69.58;100692.84;4935996;29;20055;-82
2021/07/29 00:05:09;;;;;;;8.45;3.65;;;17.40;99.90;;;17.87;69.22;100696.00;4919106;29;20349;-82
2021/07/29 00:07:37;;;;;;;14.52;3.90;;;17.50;99.90;;;17.93;70.22;100711.81;4918942;29;20099;-82
2021/07/29 00:10:08;;;;;;;11.35;4.15;;;17.50;99.90;;;17.98;71.49;100709.88;4935728;29;20486;-83
2021/07/29 00:12:37;;;;;;;12.40;5.00;;;17.60;99.90;;;17.93;72.19;100682.38;4935893;29;20055;-82
2021/07/29 00:15:06;;;;;;;11.75;4.68;;;17.60;99.90;;;17.95;72.93;100700.16;4935941;29;20131;-83
2021/07/29 00:20:24;;;;;;;20.50;5.93;;;17.70;99.90;;;18.02;74.82;100698.13;4919001;29;20080;-83
2021/07/29 00:22:58;;;;;;;25.08;6.55;;;17.70;99.90;;;17.89;76.33;100670.94;4935726;29;20099;-83
2021/07/29 00:25:29;;;;;;;21.38;6.97;;;17.60;99.90;;;17.94;77.47;100687.69;4935725;29;20486;-82
2021/07/29 00:27:57;;;;;;;;;;;17.60;99.90;;;17.83;78.44;100670.28;4936413;29;20058;-83
2021/07/29 00:30:27;;;;;;;24.00;7.35;;;17.60;99.90;;;17.83;79.32;100672.94;4918547;29;20424;-83
2021/07/29 00:32:56;;;;;;;30.30;7.38;;;17.60;99.90;;;17.68;80.12;100673.53;4935760;29;20056;-82
2021/07/29 00:35:25;;;;;;;27.80;6.72;;;17.50;99.90;;;17.86;80.19;100684.44;4935783;29;20060;-82
2021/07/29 00:38:00;;;;;;;28.88;7.80;;;17.50;99.90;;;17.91;80.27;100678.91;4935895;29;20142;-82
2021/07/29 00:40:31;;;;;;;32.78;8.02;;;17.60;99.90;;;17.93;80.29;100671.69;4919089;29;20063;-82
2021/07/29 00:43:00;;;;;;;28.58;7.63;;;17.60;99.90;;;17.94;80.15;100668.94;4922442;29;20051;-82
2021/07/29 00:45:29;;;;;;;29.83;7.70;;;17.60;99.90;;;17.49;80.14;100608.25;4939138;29;20457;-82
2021/07/29 00:47:57;;;;;;;27.80;7.30;;;17.70;99.90;;;17.95;80.70;100670.69;4939265;29;20044;-83
2021/07/29 00:50:37;;;;;;;31.90;7.60;;;17.60;99.90;;;17.86;80.36;100659.47;4922130;29;20055;-83
2021/07/29 00:53:06;;;;;;;27.00;7.18;;;17.70;99.90;;;18.04;80.54;100669.47;4938943;29;20694;-82
2021/07/29 00:55:36;;;;;;;27.13;7.13;;;17.70;99.90;;;17.42;80.68;100583.50;4939205;29;20446;-83
2021/07/29 00:58:05;;;;;;;26.75;7.72;;;17.70;99.90;;;18.17;80.60;100676.13;4939136;29;20067;-83
2021/07/29 01:00:33;;;;;;;26.88;7.40;;;17.80;99.90;;;18.22;80.44;100675.91;4922320;29;20106;-83
2021/07/29 01:03:02;;;;;;;25.92;6.85;;;17.90;99.90;;;18.18;80.35;100664.47;4939097;29;20044;-83
2021/07/29 01:05:30;;;;;;;28.05;7.10;;;17.90;99.90;;;18.27;79.91;100679.31;4938546;29;20051;-83
2021/07/29 01:07:59;;;;;;;23.30;6.78;;;17.90;99.90;;;18.22;78.84;100679.47;4938958;29;20046;-82
2021/07/29 01:10:27;;;;;;;24.02;7.00;;;18.00;99.90;;;18.22;77.78;100667.88;4938870;29;20040;-83
2021/07/29 01:12:57;;;;;;;23.92;6.28;;;18.00;99.90;;;18.29;77.09;100685.47;4921938;29;20146;-82
2021/07/29 01:15:26;;;;;;;18.70;5.82;;;18.00;99.90;;;18.29;75.97;100686.34;4938867;29;20048;-82
2021/07/29 01:18:01;;;;;;;19.73;6.18;;;18.00;99.90;;;18.36;75.75;100695.91;4939222;29;20124;-83
2021/07/29 01:20:32;;;;;;;28.08;6.00;;;18.00;99.90;;;18.35;74.54;100688.78;4939141;29;20095;-83
2021/07/29 01:23:00;;;;;;;;;;;18.10;99.90;;;18.12;73.88;100690.63;4940174;29;20050;-83
2021/07/29 01:25:28;;;;;;;20.00;5.30;;;17.90;99.90;;;17.86;73.95;100683.56;4922060;29;20376;-82
2021/07/29 01:27:57;;;;;;;21.98;5.25;;;17.70;99.90;;;17.68;74.16;100686.91;4939432;29;20047;-83
2021/07/29 01:30:26;;;;;;;24.95;5.80;;;17.50;99.90;;;17.53;74.00;100680.31;4938784;29;20102;-82
2021/07/29 01:32:54;;;;;;;20.70;5.03;;;17.40;99.90;;;17.51;73.25;100675.94;4922056;29;20048;-83
2021/07/29 01:35:23;;;;;;;24.48;4.90;;;17.40;99.90;;;17.63;73.64;100696.91;4938719;29;20053;-82
2021/07/29 01:37:52;;;;;;;14.02;4.55;;;17.40;99.90;;;17.68;73.56;100694.94;4938739;29;20059;-83
2021/07/29 01:40:21;;;;;;;12.40;4.73;;;17.40;99.90;;;17.52;72.87;100681.22;4938133;29;20168;-83
2021/07/29 01:42:49;;;;;;;12.90;4.63;;;17.30;99.90;;;17.60;72.93;100702.34;4938586;29;20800;-83
2021/07/29 01:45:18;;;;;;;13.40;4.50;;;17.30;99.90;;;17.61;72.24;100699.63;4921293;29;20071;-82
2021/07/29 01:47:46;;;;;;;10.85;4.60;;;17.40;99.90;;;17.56;71.44;100696.25;4921101;29;20083;-83
2021/07/29 01:50:14;;;;;;;11.73;4.70;;;17.30;99.90;;;17.68;71.08;100694.94;4938347;29;20102;-83
2021/07/29 01:52:43;;;;;;;10.15;4.28;;;17.40;99.90;;;17.78;71.07;100686.53;4938164;29;20081;-83
2021/07/29 01:55:13;;;;;;;10.18;3.75;;;17.50;99.90;;;17.78;70.19;100688.31;4937944;29;20047;-83
2021/07/29 01:57:41;;;;;;;11.82;3.53;;;17.50;99.90;;;17.82;69.11;100690.84;4938698;29;20048;-83
2021/07/29 02:00:12;;;;;;;7.15;3.30;;;17.60;99.90;;;17.83;68.60;100691.69;4937756;29;20110;-83
2021/07/29 02:02:40;;;;;;;7.95;3.88;;;17.60;99.90;;;17.86;67.54;100686.22;4938084;29;20711;-83
2021/07/29 02:05:09;;;;;;;9.40;3.40;;;17.60;99.90;;;17.96;67.36;100693.00;4937650;29;20040;-84
2021/07/29 02:07:38;;;;;;;4.88;3.45;;;17.70;99.90;;;17.94;66.42;100702.88;4937728;29;20102;-83
2021/07/29 02:10:07;;;;;;;10.35;3.88;;;17.70;99.90;;;17.97;66.04;100698.28;4937761;29;20040;-83
2021/07/29 02:12:39;;;;;;;4.35;3.00;;;17.70;99.90;;;17.98;66.03;100683.09;4920814;29;20092;-83
2021/07/29 02:15:10;;;;;;;8.68;3.55;;;17.80;99.90;;;17.86;65.70;100681.75;4921148;29;20150;-83
2021/07/29 02:17:38;;;;;;;;;;;17.80;99.90;;;18.07;65.77;100701.50;4938268;29;20549;-84
2021/07/29 02:20:09;;;;;;;7.18;4.53;;;17.80;99.90;;;17.95;65.63;100685.88;4937739;29;19962;-84
2021/07/29 02:22:37;;;;;;;10.77;3.60;;;17.80;99.90;;;18.13;65.59;100709.28;4937684;29;20055;-83
2021/07/29 02:25:07;;;;;;;11.48;4.25;;;17.80;99.90;;;18.02;65.54;100698.97;4937614;29;20072;-83
2021/07/29 02:27:37;;;;;;;7.50;3.75;;;17.80;99.90;;;18.20;65.88;100707.22;4920144;29;20055;-83
2021/07/29 02:30:07;;;;;;;10.40;4.20;;;17.80;99.90;;;18.17;65.67;100691.31;4920579;29;20059;-83
2021/07/29 02:32:36;;;;;;;8.18;3.78;;;17.90;99.90;;;18.18;65.99;100696.59;4936976;29;20063;-83
2021/07/29 02:35:06;;;;;;;7.57;3.88;;;17.90;99.90;;;17.66;65.84;100616.53;4937263;29;20485;-83
2021/07/29 02:37:34;;;;;;;9.82;4.22;;;17.90;99.90;;;18.16;66.02;100693.09;4936950;29;20055;-83
2021/07/29 02:40:03;;;;;;;9.95;3.95;;;17.90;99.90;;;18.18;66.34;100703.75;4920084;29;20111;-83
2021/07/29 02:42:32;;;;;;;9.93;4.00;;;17.80;99.90;;;18.14;66.85;100700.31;4937105;29;20039;-83
2021/07/29 02:45:01;;;;;;;14.27;4.05;;;17.80;99.90;;;17.96;67.63;100701.03;4937114;29;20095;-83
2021/07/29 02:47:30;;;;;;;11.23;4.13;;;17.70;99.90;;;17.86;68.33;100716.56;4920026;29;20134;-83
2021/07/29 02:49:59;;;;;;;11.43;3.60;;;17.60;99.90;;;17.77;69.14;100702.59;4920132;29;20466;-83
2021/07/29 02:52:27;;;;;;;10.20;4.05;;;17.50;99.90;;;17.84;69.06;100702.34;4936944;29;20615;-83
2021/07/29 02:54:56;;;;;;;10.77;3.47;;;17.60;99.90;;;17.96;69.38;100706.38;4937000;29;20375;-83
2021/07/29 02:57:24;;;;;;;10.60;4.10;;;17.60;99.90;;;18.02;69.43;100714.19;4937069;29;20048;-84
2021/07/29 02:59:54;;;;;;;11.38;3.97;;;17.60;99.90;;;17.80;69.67;100703.41;4936930;29;20040;-84
2021/07/29 03:02:24;;;;;;;8.57;4.13;;;17.50;99.90;;;17.69;70.07;100694.00;4936850;29;20048;-84
2021/07/29 03:04:53;;;;;;;12.23;4.35;;;17.40;99.90;;;17.84;70.30;100715.72;4936609;29;20054;-84
2021/07/29 03:07:21;;;;;;;13.90;4.20;;;17.40;99.90;;;17.80;70.65;100714.09;4936687;29;20130;-84
2021/07/29 03:09:49;;;;;;;9.80;4.30;;;17.40;99.90;;;17.81;70.86;100710.47;4936785;29;20454;-82
2021/07/29 03:12:18;;;;;;;12.15;4.32;;;17.40;99.90;;;17.77;71.30;100700.81;4936647;29;20048;-83
2021/07/29 03:14:46;;;;;;;10.73;4.57;;;17.40;99.90;;;17.82;71.40;100714.91;4936297;29;20098;-83
2021/07/29 03:17:14;;;;;;;8.95;3.92;;;17.40;99.90;;;17.78;71.47;100704.38;4936348;29;20561;-83
2021/07/29 03:19:44;;;;;;;14.48;4.80;;;17.50;99.90;;;17.70;71.67;100693.06;4936603;29;20052;-83
2021/07/29 03:22:13;;;;;;;14.25;5.43;;;17.50;99.90;;;17.74;72.01;100705.41;4936536;29;20044;-83
2021/07/29 03:24:41;;;;;;;12.57;4.80;;;17.40;99.90;;;17.76;72.27;100703.56;4919450;29;20107;-84
2021/07/29 03:27:09;;;;;;;13.55;4.82;;;17.40;99.90;;;17.80;72.60;100707.88;4936436;29;20397;-83
2021/07/29 03:29:38;;;;;;;13.35;5.32;;;17.50;99.90;;;17.78;72.74;100707.94;4936206;29;20622;-83
2021/07/29 03:32:08;;;;;;;17.75;5.70;;;17.50;99.90;;;17.88;72.82;100709.34;4935905;29;20064;-84
2021/07/29 03:34:36;;;;;;;13.38;4.50;;;17.50;99.90;;;17.98;72.57;100726.78;4936671;29;20138;-83
2021/07/29 03:37:06;;;;;;;12.02;4.93;;;17.60;99.90;;;17.99;72.78;100731.22;4936303;29;20196;-83
2021/07/29 03:39:35;;;;;;;16.95;5.47;;;17.60;99.90;;;17.95;73.03;100718.00;4936548;29;20394;-83
2021/07/29 03:42:04;;;;;;;10.73;4.65;;;17.60;99.90;;;17.93;72.60;100717.19;4936199;29;20127;-83
2021/07/29 03:44:32;;;;;;;13.80;4.70;;;17.60;99.90;;;17.85;72.70;100711.22;4936551;29;20119;-84
2021/07/29 03:47:01;;;;;;;12.02;4.85;;;17.60;99.90;;;17.89;72.56;100723.56;4935907;29;20106;-84
2021/07/29 03:49:29;;;;;;;15.15;4.63;;;17.50;99.90;;;17.94;72.27;100724.28;4936222;29;20095;-84
2021/07/29 03:51:59;;;;;;;13.40;4.45;;;17.60;99.90;;;17.94;72.13;100724.28;4919096;29;20462;-83
2021/07/29 03:54:29;;;;;;;14.75;4.90;;;17.60;99.90;;;17.81;72.11;100731.00;4936495;29;20044;-84
2021/07/29 03:56:57;;;;;;;13.17;4.67;;;17.50;99.90;;;17.87;72.07;100730.78;4936270;29;20044;-83
2021/07/29 03:59:26;;;;;;;17.45;4.38;;;17.50;99.90;;;17.81;72.11;100729.22;4936134;29;20039;-84
2021/07/29 04:01:54;;;;;;;14.23;5.43;;;17.50;99.90;;;17.98;71.91;100729.47;4919025;29;20406;-84
2021/07/29 04:04:23;;;;;;;17.05;4.47;;;17.60;99.90;;;18.03;71.53;100723.94;4936222;29;20054;-84
2021/07/29 04:06:51;;;;;;;13.73;5.43;;;17.70;99.90;;;18.08;71.31;100737.16;4936004;29;20051;-84
2021/07/29 04:09:20;;;;;;;9.60;4.38;;;17.70;99.90;;;18.04;71.18;100725.69;4936142;29;20036;-81
2021/07/29 04:11:50;;;;;;;15.63;4.80;;;17.70;99.90;;;17.98;71.41;100726.78;4919223;29;20056;-78
2021/07/29 04:14:18;;;;;;;13.80;4.40;;;17.70;99.90;;;17.91;71.61;100724.38;4936088;29;20048;-75
2021/07/29 04:16:47;;;;;;;14.05;5.05;;;17.60;99.90;;;17.97;71.85;100727.72;4921145;29;20276;-76
2021/07/29 04:19:15;;;;;;;13.00;4.57;;;17.70;99.90;;;17.94;71.76;100727.81;4939863;29;20091;-77
2021/07/29 04:21:43;;;;;;;17.75;4.65;;;17.60;99.90;;;17.91;71.50;100745.81;4939720;29;20124;-74
2021/07/29 04:24:12;;;;;;;14.52;4.55;;;17.60;99.90;;;17.77;71.38;100721.34;4939687;29;20497;-76
2021/07/29 04:26:40;;;;;;;12.82;4.35;;;17.50;99.90;;;17.88;71.24;100743.25;4939583;29;20055;-76
2021/07/29 04:29:11;;;;;;;11.73;4.50;;;17.50;99.90;;;17.48;70.78;100678.69;4939485;29;20107;-76
2021/07/29 04:31:40;;;;;;;10.75;4.25;;;17.60;99.90;;;17.87;71.02;100749.50;4939070;29;20063;-76
2021/07/29 04:34:08;;;;;;;15.27;4.78;;;17.50;99.90;;;17.95;70.76;100750.13;4922215;29;20052;-76
2021/07/29 04:36:40;;;;;;;10.68;4.03;;;17.60;99.90;;;17.96;70.90;100743.84;4939643;29;20048;-76
2021/07/29 04:39:10;;;;;;;13.18;4.30;;;17.60;99.90;;;18.01;71.07;100748.09;4939667;29;20387;-76
2021/07/29 04:41:39;;;;;;;16.10;4.63;;;17.60;99.90;;;17.91;71.38;100743.13;4939802;29;20051;-76
2021/07/29 04:44:10;;;;;;;13.30;4.27;;;17.60;99.90;;;18.01;71.40;100752.56;4939344;29;20059;-76
2021/07/29 04:46:41;;;;;;;9.57;4.60;;;17.60;99.90;;;17.95;71.45;100751.00;4922120;29;20048;-76
2021/07/29 04:49:12;;;;;;;12.88;4.28;;;17.60;99.90;;;17.93;71.52;100757.31;4939030;29;20048;-76
2021/07/29 04:51:42;;;;;;;10.00;4.63;;;17.60;99.90;;;17.34;71.47;100633.72;4939241;29;20043;-76
2021/07/29 04:54:10;;;;;;;13.17;4.23;;;17.60;99.90;;;18.08;71.63;100746.06;4939007;29;20044;-76
2021/07/29 04:56:38;;;;;;;10.25;4.53;;;17.70;99.90;;;18.06;72.68;100757.78;4938903;29;20115;-76
2021/07/29 04:59:07;;;;;;;12.55;4.80;;;17.70;99.90;;;18.09;73.59;100752.28;4939143;29;20095;-76
2021/07/29 05:01:39;;;;;;;17.75;5.22;;;17.80;99.90;;;18.16;74.44;100760.03;4939352;29;20044;-75
2021/07/29 05:04:08;;;;;;;15.77;5.63;;;17.80;99.90;;;18.23;75.12;100758.91;4938764;29;20047;-76
2021/07/29 05:06:36;;;;;;;18.58;5.43;;;17.80;99.90;;;18.20;75.71;100753.63;4939295;29;20039;-76
2021/07/29 05:09:05;;;;;;;21.02;6.18;;;17.90;99.90;;;18.15;76.29;100758.31;4938967;29;20047;-76
2021/07/29 05:11:34;;;;;;;21.70;6.55;;;17.80;99.90;;;18.18;76.45;100770.69;4938634;29;20070;-76
2021/07/29 05:14:02;;;;;;;18.02;5.88;;;17.80;99.90;;;18.04;76.81;100755.13;4938895;29;20040;-76
2021/07/29 05:16:31;;;;;;;16.17;6.13;;;17.80;99.90;;;17.99;77.25;100768.69;4921751;29;20059;-75
2021/07/29 05:19:00;;;;;;;18.95;6.07;;;17.70;99.90;;;17.22;77.94;100646.66;4939036;29;20055;-76
2021/07/29 05:21:30;;;;;;;17.73;5.32;;;17.60;99.90;;;17.77;78.65;100753.44;4921606;29;20048;-76
2021/07/29 05:23:59;;;;;;;23.07;5.37;;;17.50;99.90;;;17.75;78.74;100755.34;4938789;29;20043;-76
2021/07/29 05:26:27;;;;;;;18.38;5.43;;;17.40;99.90;;;17.13;78.61;100658.50;4938273;29;20087;-76
2021/07/29 05:28:55;;;;;;;20.60;5.43;;;17.40;99.90;;;17.70;78.75;100765.31;4938620;29;20080;-76
2021/07/29 05:31:24;;;;;;;18.40;5.75;;;17.50;99.90;;;17.79;78.82;100762.28;4938543;29;20054;-75
2021/07/29 05:33:52;;;;;;;22.05;6.05;;;17.50;99.90;;;17.97;78.63;100775.03;4938340;29;20247;-75
2021/07/29 05:36:22;;;;;;;16.95;5.10;;;17.60;99.90;;;17.98;78.65;100771.44;4938420;29;20063;-76
2021/07/29 05:38:51;;;;;;;16.17;5.38;;;17.70;99.90;;;18.00;78.58;100772.25;4938669;29;20095;-75
2021/07/29 05:41:19;;;;;;;20.00;5.90;;;17.70;99.90;;;18.02;78.49;100781.09;4938403;29;20054;-76
2021/07/29 05:43:47;;;;;;;23.30;6.20;;;17.70;99.90;;;17.94;78.71;100748.38;4921371;29;20103;-76
2021/07/29 05:46:16;;;;;;;12.85;5.53;;;17.70;99.90;;;18.06;77.99;100776.50;4938352;29;20094;-76
2021/07/29 05:48:44;;;;;;;21.10;5.80;;;17.70;99.90;;;17.35;76.90;100672.91;4938103;29;20047;-76
2021/07/29 05:51:13;;;;;;;18.30;5.43;;;17.70;99.90;;;17.99;75.75;100770.50;4921228;29;20055;-76
2021/07/29 05:53:43;;;;;;;15.88;5.93;;;17.70;99.90;;;18.13;74.55;100772.66;4938219;29;20055;-76
2021/07/29 05:56:12;;;;;;;20.02;5.85;;;17.80;99.90;;;17.78;73.68;100701.69;4938102;29;20147;-76
2021/07/29 05:58:41;;;;;;;15.18;5.28;;;17.90;99.90;;;18.48;73.13;100785.66;4921014;29;20043;-76
2021/07/29 06:01:09;;;;;;;21.98;5.65;;;18.10;99.90;;;18.45;72.26;100786.63;4921006;29;20056;-76
2021/07/29 06:03:38;;;;;;;17.33;5.30;;;18.10;99.90;;;18.36;71.40;100791.44;4920566;29;20091;-76
2021/07/29 06:06:07;;;;;;;17.83;5.35;;;18.20;99.90;;;18.51;70.96;100782.84;4937846;29;20048;-76
2021/07/29 06:08:35;;;;;;;12.00;5.22;;;18.30;99.90;;;18.48;70.09;100791.00;4937695;29;20371;-76
2021/07/29 06:11:06;;;;;;;12.75;5.53;;;18.20;99.90;;;18.32;70.20;100763.91;4937810;29;20442;-76
2021/07/29 06:13:34;;;;;;;15.63;5.32;;;18.20;99.90;;;17.91;70.73;100684.25;4920795;29;20065;-76
2021/07/29 06:16:04;;;;;;;11.10;5.05;;;18.20;99.90;;;18.38;70.29;100771.69;4937789;29;20083;-76
2021/07/29 06:18:36;;;;;;;16.00;5.40;;;18.20;99.90;;;18.69;70.05;100801.78;4920524;29;20070;-76
2021/07/29 06:21:05;;;;;;;14.82;5.55;;;18.40;99.90;;;18.62;69.86;100781.50;4920586;29;20052;-76
2021/07/29 06:23:34;;;;;;;14.13;5.45;;;18.40;99.90;;;18.81;69.60;100808.47;4937636;29;20099;-75
2021/07/29 06:26:02;;;;;;;15.77;5.82;;;18.50;99.90;;;18.95;69.77;100802.56;4937262;29;20495;-76
2021/07/29 06:28:34;;;;;;;15.00;5.20;;;18.60;99.90;;;18.91;67.83;100791.09;4937073;29;20071;-75
2021/07/29 06:31:02;;;;;;;13.82;5.47;;;18.70;99.90;;;19.04;67.08;100805.75;4937183;29;20051;-81
2021/07/29 06:33:31;;;;;;;12.30;4.70;;;18.70;99.90;;;19.21;66.27;100805.06;4901194;29;20100;-86
2021/07/29 06:36:04;;;;;;;15.77;5.72;;;18.90;99.90;;;19.19;66.15;100809.59;4918662;29;20056;-83
2021/07/29 06:38:33;;;;;;;16.35;5.75;;;18.90;99.90;;;19.27;66.36;100804.81;4917668;29;20056;-82
2021/07/29 06:41:05;;;;;;;16.48;4.60;;;19.00;99.90;;;19.20;66.37;100811.38;4918340;29;20122;-84
2021/07/29 06:43:36;;;;;;;14.60;5.15;;;18.90;99.90;;;19.11;67.03;100809.03;4918440;29;20040;-82
2021/07/29 06:46:05;;;;;;;13.30;5.28;;;18.90;99.90;;;19.16;66.98;100818.69;4901263;29;20056;-84
2021/07/29 06:48:35;;;;;;;16.67;5.35;;;18.80;99.90;;;19.04;67.47;100803.06;4901119;29;20047;-82
2021/07/29 06:51:03;;;;;;;16.67;5.40;;;18.90;99.90;;;19.15;67.37;100824.06;4901310;29;20063;-85
2021/07/29 06:53:32;;;;;;;12.82;4.93;;;18.90;99.90;;;19.13;67.71;100829.50;4918659;29;20119;-75
2021/07/29 06:56:01;;;;;;;17.40;5.72;;;18.80;99.90;;;19.21;68.08;100847.97;4901421;29;20048;-74
2021/07/29 06:58:30;;;;;;;13.43;5.90;;;18.90;99.90;;;19.10;67.49;100844.84;4918111;29;20048;-78
2021/07/29 07:01:03;;;;;;;19.50;5.38;;;18.90;99.90;;;19.19;67.23;100849.84;4917858;29;20060;-81
2021/07/29 07:03:33;;;;;;;13.55;5.47;;;18.80;99.90;;;19.20;67.05;100854.28;4918460;29;20043;-83
2021/07/29 07:06:02;;;;;;;15.23;5.45;;;18.90;99.90;;;19.19;67.32;100847.16;4918584;29;20059;-81
2021/07/29 07:08:32;;;;;;;10.65;4.68;;;18.90;99.90;;;19.30;66.16;100831.53;4918236;29;20426;-82
2021/07/29 07:11:01;;;;;;;12.27;5.00;;;19.10;99.90;;;19.50;65.34;100842.31;4900940;29;20514;-87
2021/07/29 07:13:29;;;;;;;14.48;5.65;;;19.20;99.90;;;19.39;65.41;100841.91;4917743;29;20055;-83
2021/07/29 07:15:58;;;;;;;12.00;5.07;;;19.20;99.90;;;19.43;65.83;100847.09;4917730;29;20498;-75
2021/07/29 07:18:28;;;;;;;11.15;4.75;;;19.20;99.90;;;19.45;65.59;100855.94;4917693;29;20048;-74
2021/07/29 07:21:04;;;;;;;12.93;4.60;;;19.20;99.90;;;19.58;65.04;100862.56;4917588;29;20048;-78
2021/07/29 07:23:33;;;;;;;9.57;4.78;;;19.30;99.90;;;19.67;64.01;100858.59;4917406;29;20055;-75
2021/07/29 07:26:02;;;;;;;15.55;5.00;;;19.40;99.90;;;19.88;63.74;100862.22;4917292;29;20524;-77
2021/07/29 07:28:32;;;;;;;17.67;5.55;;;19.50;99.90;;;19.91;64.53;100862.06;4917401;29;20040;-78
2021/07/29 07:31:00;;;;;;;14.88;4.82;;;19.60;99.90;;;19.79;64.12;100852.72;4917353;29;20398;-81
2021/07/29 07:33:30;;;;;;;11.63;4.28;;;19.60;99.90;;;19.80;62.95;100867.91;4936531;29;20493;-77
2021/07/29 07:35:58;;;;;;;14.57;5.10;;;19.60;99.90;;;20.04;63.14;100880.28;4936765;29;20556;-81
2021/07/29 07:38:27;;;;;;;12.57;5.47;;;19.70;99.90;;;20.20;62.83;100880.50;4919821;29;20051;-77
2021/07/29 07:40:56;;;;;;;15.02;5.47;;;19.80;99.90;;;20.40;62.81;100894.81;4936616;29;20069;-77
2021/07/29 07:43:25;;;;;;;13.10;5.25;;;20.10;99.90;;;20.44;62.05;100890.19;4919517;29;20055;-76
2021/07/29 07:45:53;;;;;;;12.98;4.60;;;20.10;99.90;;;20.26;61.22;100891.88;4919235;29;20055;-81
2021/07/29 07:48:21;;;;;;;12.40;4.78;;;20.00;99.90;;;20.36;61.63;100874.38;4936083;29;20143;-77
2021/07/29 07:50:52;;;;;;;14.15;4.95;;;20.10;99.90;;;20.51;61.22;100860.28;4918976;29;20494;-77
2021/07/29 07:53:24;;;;;;;11.45;4.75;;;20.20;99.90;;;20.51;60.72;100880.91;4936413;29;20036;-77
2021/07/29 07:55:52;;;;;;;14.65;4.63;;;20.20;99.90;;;20.38;61.04;100875.19;4937124;29;20048;-81
2021/07/29 07:58:21;;;;;;;12.68;4.72;;;20.20;99.90;;;20.75;61.02;100887.00;4919653;29;20504;-75
2021/07/29 08:00:50;;;;;;;16.83;5.20;;;20.40;99.90;;;20.87;60.95;100898.03;4942163;29;20565;-85
2021/07/29 08:03:19;;;;;;;9.50;4.47;;;20.50;99.90;;;20.93;58.99;100880.75;4927044;29;20056;-85
2021/07/29 08:05:47;;;;;;;12.20;5.03;;;20.60;99.90;;;20.98;59.06;100902.94;4936685;29;20091;-85
2021/07/29 08:08:17;;;;;;;12.35;4.97;;;20.70;99.90;;;21.04;59.53;100884.72;4937094;29;20048;-86
2021/07/29 08:10:50;;;;;;;10.57;5.13;;;20.80;99.90;;;21.09;59.29;100882.69;4919078;29;20067;-79
2021/07/29 08:13:19;;;;;;;12.50;5.18;;;20.90;99.90;;;21.06;58.85;100877.44;4936263;29;20284;-79
2021/07/29 08:15:47;;;;;;;10.77;4.53;;;20.90;99.90;;;21.13;58.30;100894.19;4919130;29;20047;-78
2021/07/29 08:18:16;;;;;;;13.05;4.43;;;20.90;99.90;;;21.14;56.75;100891.41;4935727;29;20407;-81
2021/07/29 08:20:44;;;;;;;10.23;4.57;;;20.90;99.90;;;21.06;56.80;100901.66;4918913;29;20107;-88
2021/07/29 08:23:13;;;;;;;14.30;4.57;;;20.80;99.90;;;20.98;56.67;100892.19;4919021;29;20084;-83
2021/07/29 08:25:43;;;;;;;9.63;4.35;;;20.70;99.90;;;21.03;56.72;100907.19;4919274;29;20497;-85
2021/07/29 08:28:13;;;;;;;11.32;4.38;;;20.70;99.90;;;21.00;56.93;100904.59;4936224;29;20047;-82
2021/07/29 08:30:41;;;;;;;12.32;4.40;;;20.80;99.90;;;21.34;58.22;100923.63;4935871;29;20052;-71
2021/07/29 08:33:10;;;;;;;9.73;4.57;;;21.00;99.90;;;21.54;54.77;100906.53;4935556;29;20135;-71
2021/07/29 08:35:40;;;;;;;11.57;4.68;;;21.20;99.90;;;21.48;54.43;100907.69;4935246;29;20053;-71
2021/07/29 08:38:08;;;;;;;9.65;4.32;;;21.20;99.90;;;21.50;53.56;100904.94;4935457;29;20059;-70
2021/07/29 08:40:37;;;;;;;12.77;4.25;;;21.20;99.90;;;21.38;54.31;100913.59;4935734;29;20130;-71
2021/07/29 08:43:07;;;;;;;10.65;4.15;;;21.10;99.90;;;21.53;55.53;100911.03;4935496;29;20044;-71
2021/07/29 08:45:44;;;;;;;11.52;4.80;;;21.20;99.90;;;21.80;55.31;100913.28;4935841;29;20051;-71
2021/07/29 08:48:18;;;;;;;6.80;3.85;;;21.40;99.90;;;21.78;54.54;100926.84;4935859;29;20482;-71
2021/07/29 08:50:48;;;;;;;9.15;4.03;;;21.50;99.90;;;21.86;54.12;100919.28;4935475;29;20150;-71
2021/07/29 08:53:17;;;;;;;10.30;4.38;;;21.50;99.90;;;21.87;53.39;100926.44;4935771;29;20051;-71
2021/07/29 08:55:49;;;;;;;10.02;3.88;;;21.60;99.90;;;21.91;54.30;100911.84;4935668;29;20051;-71
2021/07/29 08:58:20;;;;;;;8.23;4.00;;;21.60;99.90;;;21.75;53.52;100883.91;4935653;29;20055;-70
2021/07/29 09:01:02;;;;;;;15.50;4.57;;;21.80;99.90;;;21.89;53.23;100923.66;4935930;29;20228;-71
2021/07/29 09:03:31;;;;;;;9.48;4.05;;;21.60;99.90;;;21.95;53.33;100907.19;4938304;29;20099;-70
2021/07/29 09:06:02;;;;;;;10.00;4.20;;;21.70;99.90;;;21.97;53.62;100891.81;4939046;29;20083;-70
2021/07/29 09:08:47;;;;;;;12.52;4.20;;;21.80;99.90;;;22.06;52.28;100924.56;4938807;29;20122;-71
2021/07/29 09:11:36;;;;;;;10.52;4.00;;;21.70;99.90;;;21.99;51.50;100903.41;4938667;29;20387;-70
2021/07/29 09:14:11;;;;;;;7.32;3.75;;;21.80;99.90;;;22.04;51.13;100931.84;4938830;29;20036;-69
2021/07/29 09:16:58;;;;;;;11.13;4.07;;;21.70;99.90;;;22.14;52.39;100927.72;4921687;29;20067;-71
2021/07/29 09:19:35;;;;;;;11.45;4.63;;;21.80;99.90;;;22.40;52.69;100940.75;4938785;29;20107;-70
2021/07/29 09:22:09;;;;;;;10.60;4.82;;;22.00;99.90;;;22.06;52.23;100875.19;4938655;29;20048;-71
2021/07/29 09:25:01;;;;;;;11.40;4.70;;;22.20;99.90;;;22.44;51.12;100922.56;4938818;29;20043;-70
2021/07/29 09:27:45;;;;;;;9.95;3.88;;;22.20;99.90;;;22.45;51.41;100933.25;4938555;29;20047;-71
2021/07/29 09:30:19;;;;;;;6.78;4.30;;;22.10;99.90;;;22.24;50.01;100930.84;4938506;29;20113;-71
2021/07/29 09:33:06;;;;;;;9.45;4.30;;;22.00;99.90;;;22.25;51.30;100929.88;4938262;29;20111;-71
2021/07/29 09:35:44;;;;;;;11.43;4.38;;;22.00;99.90;;;22.49;52.56;100934.00;4938394;29;20127;-71
2021/07/29 09:38:24;;;;;;;12.95;4.40;;;22.10;99.90;;;22.81;52.23;100935.00;4938064;29;20061;-71
2021/07/29 09:40:56;;;;;;;9.65;4.70;;;22.40;99.90;;;22.71;50.68;100921.16;4921370;29;20048;-71
2021/07/29 09:43:29;;;;;;;8.57;4.00;;;22.50;99.90;;;22.54;49.42;100947.22;4938325;29;20107;-67
2021/07/29 09:46:01;;;;;;;10.68;4.05;;;22.30;99.90;;;22.55;50.23;100949.84;4938021;29;20137;-69
2021/07/29 09:48:30;;;;;;;9.27;4.55;;;22.20;99.90;;;22.62;51.36;100947.72;4938162;29;20055;-69
2021/07/29 09:51:01;;;;;;;12.88;4.28;;;22.30;99.90;;;22.52;49.22;100941.91;4938237;29;20062;-69
2021/07/29 09:53:33;;;;;;;11.02;4.30;;;22.30;99.90;;;22.52;48.85;100949.13;4920989;29;20494;-68
2021/07/29 09:56:08;;;;;;;8.05;4.38;;;22.30;99.90;;;22.52;49.70;100951.81;4938135;29;20052;-68
2021/07/29 09:58:56;;;;;;;9.25;4.05;;;22.20;99.90;;;22.36;50.45;100947.22;4920889;29;20044;-68
2021/07/29 10:01:26;;;;;;;8.35;4.20;;;22.10;99.90;;;22.50;51.13;100956.41;4937938;29;20051;-69
2021/07/29 10:03:56;;;;;;;9.27;4.60;;;22.10;99.90;;;22.58;50.90;100955.13;4937733;29;20051;-71
2021/07/29 10:06:27;;;;;;;7.65;4.32;;;22.20;99.90;;;22.48;49.86;100958.31;4937858;29;20056;-72
2021/07/29 10:08:59;;;;;;;12.52;4.50;;;22.20;99.90;;;22.33;51.17;100944.72;4920786;29;20414;-71
2021/07/29 10:11:30;;;;;;;10.43;4.38;;;22.10;99.90;;;22.39;51.31;100951.59;4920753;29;20509;-70
2021/07/29 10:13:59;;;;;;;13.00;4.72;;;22.10;99.90;;;22.45;51.38;100954.84;4936660;29;20099;-68
2021/07/29 10:16:50;;;;;;;13.45;5.30;;;22.20;99.90;;;22.47;51.37;100951.22;4937364;29;20494;-68
2021/07/29 10:19:19;;;;;;;15.68;4.63;;;22.20;99.90;;;22.57;50.18;100949.81;4937935;29;20490;-68
2021/07/29 10:21:48;;;;;;;13.07;4.40;;;22.20;99.90;;;22.72;50.94;100962.50;4937570;29;20051;-68